createdAt,value
2023-10-23T00:00:22.666Z,6.50
2023-10-23T00:02:50.605Z,5.17
2023-10-23T00:05:19.017Z,5.10
2023-10-23T00:07:48.566Z,2.93
2023-10-23T00:10:16.543Z,6.03
2023-10-23T00:12:44.470Z,2.90
2023-10-23T00:15:12.591Z,5.30
2023-10-23T00:17:40.625Z,4.20
2023-10-23T00:20:09.674Z,5.67
2023-10-23T00:22:37.588Z,5.10
2023-10-23T00:25:07.133Z,5.37
2023-10-23T00:27:35.074Z,3.73
2023-10-23T00:30:03.233Z,4.87
2023-10-23T00:32:31.224Z,6.10
2023-10-23T00:34:59.251Z,4.43
2023-10-23T00:37:27.163Z,2.67
2023-10-23T00:39:55.092Z,4.27
2023-10-23T00:42:24.509Z,4.20
2023-10-23T00:44:52.518Z,2.53
2023-10-23T00:47:22.613Z,4.03
2023-10-23T00:49:50.618Z,4.13
2023-10-23T00:52:18.654Z,7.87
2023-10-23T00:54:47.839Z,4.30
2023-10-23T00:57:15.928Z,6.13
2023-10-23T00:59:45.411Z,3.13
2023-10-23T01:02:13.530Z,2.77
2023-10-23T01:04:41.544Z,3.43
2023-10-23T01:07:09.557Z,3.33
2023-10-23T01:09:37.568Z,3.50
2023-10-23T01:12:05.809Z,3.73
2023-10-23T01:14:33.704Z,3.37
2023-10-23T01:17:03.049Z,3.63
2023-10-23T01:19:30.957Z,5.23
2023-10-23T01:21:58.908Z,3.97
2023-10-23T01:24:27.682Z,4.73
2023-10-23T01:26:57.144Z,2.33
2023-10-23T01:29:25.189Z,4.60
2023-10-23T01:31:53.139Z,3.73
2023-10-23T01:34:21.313Z,3.17
2023-10-23T01:36:49.611Z,3.83
2023-10-23T01:39:17.669Z,6.53
2023-10-23T01:41:45.642Z,4.43
2023-10-23T01:44:14.987Z,3.70
2023-10-23T01:46:42.896Z,3.73
2023-10-23T01:49:10.824Z,4.60
2023-10-23T01:51:38.784Z,7.73
2023-10-23T01:54:06.736Z,6.00
2023-10-23T01:56:34.668Z,5.73
2023-10-23T01:59:02.686Z,5.17
2023-10-23T02:01:34.216Z,6.90
2023-10-23T02:04:02.299Z,7.10
2023-10-23T02:06:30.297Z,15.67
2023-10-23T02:08:58.264Z,21.07
2023-10-23T02:11:26.175Z,30.10
2023-10-23T02:13:54.109Z,25.27
2023-10-23T02:16:22.024Z,14.83
2023-10-23T02:18:51.366Z,15.67
2023-10-23T02:21:19.334Z,23.30
2023-10-23T02:23:56.076Z,32.77
2023-10-23T02:26:24.545Z,23.63
2023-10-23T02:28:52.459Z,25.17
2023-10-23T02:31:20.893Z,17.10
2023-10-23T02:33:48.976Z,9.83
2023-10-23T02:36:18.582Z,12.00
2023-10-23T02:38:46.562Z,8.13
2023-10-23T02:41:14.453Z,12.83
2023-10-23T02:43:42.333Z,9.33
2023-10-23T02:46:11.060Z,4.00
2023-10-23T02:48:39.543Z,4.30
2023-10-23T02:51:07.537Z,2.37
2023-10-23T02:53:37.438Z,2.77
2023-10-23T02:56:05.596Z,1.90
2023-10-23T02:58:34.647Z,2.17
2023-10-23T03:01:02.528Z,1.57
2023-10-23T03:03:30.634Z,1.50
2023-10-23T03:05:58.657Z,1.50
2023-10-23T03:08:26.540Z,3.03
2023-10-23T03:10:55.895Z,3.43
2023-10-23T03:13:24.379Z,3.33
2023-10-23T03:15:52.334Z,3.50
2023-10-23T03:18:20.342Z,6.20
2023-10-23T03:20:48.304Z,3.37
2023-10-23T03:23:16.244Z,5.63
2023-10-23T03:25:44.378Z,1.83
2023-10-23T03:28:13.768Z,4.40
2023-10-23T03:30:41.818Z,1.43
2023-10-23T03:33:09.783Z,6.70
2023-10-23T03:35:43.057Z,1.83
2023-10-23T03:38:10.995Z,2.90
2023-10-23T03:40:38.885Z,5.40
2023-10-23T03:43:06.799Z,4.03
2023-10-23T03:45:38.681Z,3.03
2023-10-23T03:48:06.999Z,3.53
2023-10-23T03:50:38.603Z,3.43
2023-10-23T03:53:06.549Z,3.37
2023-10-23T03:55:38.033Z,3.17
2023-10-23T03:58:05.967Z,3.60
2023-10-23T04:00:33.902Z,3.87
2023-10-23T04:03:03.288Z,3.13
2023-10-23T04:05:32.469Z,4.10
2023-10-23T04:08:00.651Z,2.87
2023-10-23T04:10:28.550Z,3.77
2023-10-23T04:12:56.481Z,2.20
2023-10-23T04:15:24.442Z,2.77
2023-10-23T04:17:52.580Z,1.73
2023-10-23T04:20:21.927Z,3.60
2023-10-23T04:22:49.888Z,5.67
2023-10-23T04:25:18.921Z,3.10
2023-10-23T04:27:46.911Z,4.57
2023-10-23T04:30:15.203Z,3.87
2023-10-23T04:32:43.116Z,5.37
2023-10-23T04:35:11.049Z,2.67
2023-10-23T04:37:40.366Z,1.80
2023-10-23T04:40:08.948Z,6.13
2023-10-23T04:42:36.860Z,6.00
2023-10-23T04:45:04.948Z,2.77
2023-10-23T04:47:32.946Z,3.60
2023-10-23T04:50:00.856Z,3.27
2023-10-23T04:52:28.725Z,5.70
2023-10-23T04:54:59.390Z,2.57
2023-10-23T04:57:27.586Z,4.07
2023-10-23T04:59:55.981Z,2.83
2023-10-23T05:02:23.935Z,2.10
2023-10-23T05:04:51.920Z,3.53
2023-10-23T05:07:19.850Z,4.57
2023-10-23T05:09:47.830Z,4.40
2023-10-23T05:12:17.268Z,4.27
2023-10-23T05:14:45.402Z,5.67
2023-10-23T05:17:14.288Z,4.27
2023-10-23T05:19:44.700Z,3.67
2023-10-23T05:22:12.618Z,3.73
2023-10-23T05:24:40.604Z,3.50
2023-10-23T05:27:08.577Z,4.90
2023-10-23T05:29:38.026Z,3.40
2023-10-23T05:32:06.511Z,3.60
2023-10-23T05:34:34.395Z,3.93
2023-10-23T05:37:02.355Z,8.00
2023-10-23T05:39:30.517Z,6.20
2023-10-23T05:41:58.411Z,3.07
2023-10-23T05:44:29.312Z,7.80
2023-10-23T05:46:58.816Z,6.13
2023-10-23T05:49:26.733Z,4.90
2023-10-23T05:51:54.713Z,5.20
2023-10-23T05:54:22.658Z,7.10
2023-10-23T05:56:50.671Z,2.97
2023-10-23T05:59:18.622Z,3.50
2023-10-23T06:01:46.583Z,2.23
2023-10-23T06:04:16.103Z,2.20
2023-10-23T06:06:44.204Z,3.80
2023-10-23T06:09:12.206Z,3.57
2023-10-23T06:11:40.092Z,2.83
2023-10-23T06:14:08.024Z,4.27
2023-10-23T06:16:35.946Z,4.00
2023-10-23T06:19:05.392Z,3.57
2023-10-23T06:21:34.734Z,5.23
2023-10-23T06:24:02.630Z,3.37
2023-10-23T06:26:30.844Z,2.87
2023-10-23T06:28:59.068Z,8.03
2023-10-23T06:31:27.003Z,2.67
2023-10-23T06:33:55.683Z,4.50
2023-10-23T06:36:23.734Z,11.87
2023-10-23T06:38:53.314Z,6.07
2023-10-23T06:41:21.239Z,4.57
2023-10-23T06:43:49.312Z,3.67
2023-10-23T06:46:17.270Z,5.50
2023-10-23T06:48:47.564Z,3.60
2023-10-23T06:51:15.950Z,3.00
2023-10-23T06:53:44.156Z,6.33
2023-10-23T06:56:14.035Z,6.43
2023-10-23T06:58:42.178Z,8.30
2023-10-23T07:01:10.806Z,7.70
2023-10-23T07:03:39.136Z,7.43
2023-10-23T07:06:07.811Z,11.97
2023-10-23T07:08:36.015Z,5.10
2023-10-23T07:11:04.689Z,2.47
2023-10-23T07:13:33.982Z,3.00
2023-10-23T07:16:05.125Z,4.70
2023-10-23T07:18:33.159Z,2.50
2023-10-23T07:21:02.181Z,5.80
2023-10-23T07:23:31.335Z,8.13
2023-10-23T07:26:03.169Z,4.83
2023-10-23T07:28:31.081Z,6.03
2023-10-23T07:31:03.865Z,4.97
2023-10-23T07:33:31.774Z,4.07
2023-10-23T07:36:03.709Z,4.57
2023-10-23T07:38:31.725Z,3.77
2023-10-23T07:41:00.136Z,2.33
2023-10-23T07:43:28.218Z,4.17
2023-10-23T07:46:04.067Z,4.03
2023-10-23T07:48:37.823Z,4.03
2023-10-23T07:51:06.172Z,6.53
2023-10-23T07:53:36.603Z,6.23
2023-10-23T07:56:06.084Z,3.13
2023-10-23T07:58:34.167Z,10.67
2023-10-23T08:01:07.136Z,2.10
2023-10-23T08:03:36.174Z,2.90
2023-10-23T08:06:06.172Z,3.70
2023-10-23T08:08:35.403Z,4.20
2023-10-23T08:11:04.834Z,2.30
2023-10-23T08:13:32.843Z,3.17
2023-10-23T08:16:01.728Z,4.33
2023-10-23T08:18:38.820Z,2.73
2023-10-23T08:21:16.967Z,5.60
2023-10-23T08:23:45.820Z,6.00
2023-10-23T08:26:14.400Z,4.60
2023-10-23T08:31:29.301Z,3.77
2023-10-23T08:33:58.631Z,3.47
2023-10-23T08:36:28.247Z,5.23
2023-10-23T08:38:56.300Z,3.43
2023-10-23T08:41:24.255Z,5.67
2023-10-23T08:43:52.264Z,5.63
2023-10-23T08:46:21.527Z,6.00
2023-10-23T08:48:49.871Z,4.17
2023-10-23T08:51:17.845Z,4.00
2023-10-23T08:54:08.762Z,4.43
2023-10-23T08:56:38.840Z,9.63
2023-10-23T08:59:07.183Z,4.90
2023-10-23T09:01:37.812Z,10.93
2023-10-23T09:04:07.080Z,4.90
2023-10-23T09:06:37.267Z,3.20
2023-10-23T09:09:07.690Z,5.43
2023-10-23T09:11:44.736Z,6.90
2023-10-23T09:14:13.257Z,3.10
2023-10-23T09:16:41.830Z,4.40
2023-10-23T09:19:09.990Z,2.57
2023-10-23T09:21:37.932Z,3.37
2023-10-23T09:24:07.811Z,5.73
2023-10-23T09:26:35.899Z,2.87
2023-10-23T09:29:03.890Z,4.93
2023-10-23T09:31:31.954Z,2.33
2023-10-23T09:34:00.125Z,4.97
2023-10-23T09:36:28.571Z,3.77
2023-10-23T09:39:01.126Z,5.00
2023-10-23T09:41:31.509Z,4.23
2023-10-23T09:43:59.527Z,8.67
2023-10-23T09:46:27.877Z,3.47
2023-10-23T09:49:01.228Z,7.33
2023-10-23T09:51:31.445Z,4.10
2023-10-23T09:54:01.051Z,5.57
2023-10-23T09:56:33.078Z,6.43
2023-10-23T09:59:02.024Z,5.67
2023-10-23T10:01:34.430Z,2.63
2023-10-23T10:04:07.514Z,4.23
2023-10-23T10:06:36.215Z,4.13
2023-10-23T10:09:05.602Z,4.57
2023-10-23T10:11:36.145Z,4.90
2023-10-23T10:14:05.520Z,4.57
2023-10-23T10:16:33.983Z,6.63
2023-10-23T10:19:02.190Z,5.70
2023-10-23T10:21:33.590Z,4.40
2023-10-23T10:24:04.924Z,6.17
2023-10-23T10:26:35.732Z,5.40
2023-10-23T10:29:04.418Z,6.63
2023-10-23T10:31:52.435Z,2.97
2023-10-23T10:34:29.590Z,5.17
2023-10-23T10:37:01.296Z,8.03
2023-10-23T10:39:51.816Z,3.30
2023-10-23T10:42:21.685Z,4.00
2023-10-23T10:44:55.750Z,4.30
2023-10-23T10:47:23.938Z,4.50
2023-10-23T10:49:53.263Z,4.80
2023-10-23T10:52:31.684Z,4.67
2023-10-23T10:55:02.099Z,2.80
2023-10-23T10:57:32.139Z,5.40
2023-10-23T11:00:00.506Z,5.53
2023-10-23T11:02:28.539Z,4.07
2023-10-23T11:04:56.500Z,5.03
2023-10-23T11:07:25.282Z,7.27
2023-10-23T11:09:53.699Z,25.33
2023-10-23T11:12:21.914Z,10.37
2023-10-23T11:14:51.311Z,6.20
2023-10-23T11:17:19.365Z,4.40
2023-10-23T11:19:47.274Z,4.90
2023-10-23T11:22:15.901Z,3.73
2023-10-23T11:24:44.453Z,5.90
2023-10-23T11:27:12.638Z,4.03
2023-10-23T11:29:41.454Z,3.00
2023-10-23T11:32:12.557Z,2.87
2023-10-23T11:34:42.261Z,3.37
2023-10-23T11:37:10.655Z,6.87
2023-10-23T11:39:39.513Z,2.23
2023-10-23T11:42:07.911Z,3.70
2023-10-23T11:44:36.201Z,3.40
2023-10-23T11:47:05.733Z,4.40
2023-10-23T11:49:35.590Z,2.50
2023-10-23T11:52:03.899Z,6.23
2023-10-23T11:54:32.092Z,3.40
2023-10-23T11:57:00.460Z,4.80
2023-10-23T11:59:28.942Z,2.20
2023-10-23T12:01:58.095Z,7.30
2023-10-23T12:04:26.170Z,3.97
2023-10-23T12:06:55.590Z,6.93
2023-10-23T12:09:23.529Z,3.07
2023-10-23T12:11:51.488Z,4.87
2023-10-23T12:14:19.427Z,8.03
2023-10-23T12:16:47.523Z,7.43
2023-10-23T12:19:15.499Z,6.50
2023-10-23T12:21:43.585Z,5.60
2023-10-23T12:24:12.946Z,4.57
2023-10-23T12:26:41.413Z,4.00
2023-10-23T12:29:11.516Z,4.47
2023-10-23T12:32:01.577Z,8.97
2023-10-23T12:34:27.556Z,3.33
2023-10-23T12:36:55.663Z,6.73
2023-10-23T12:39:26.621Z,5.43
2023-10-23T12:41:54.551Z,7.60
2023-10-23T12:44:22.492Z,5.33
2023-10-23T12:46:51.776Z,6.23
2023-10-23T12:49:19.901Z,6.53
2023-10-23T12:51:47.884Z,4.27
2023-10-23T12:54:15.811Z,6.03
2023-10-23T12:56:45.097Z,10.00
2023-10-23T12:59:12.973Z,3.80
2023-10-23T13:01:41.021Z,7.60
2023-10-23T13:04:09.085Z,3.63
2023-10-23T13:06:37.120Z,5.10
2023-10-23T13:09:05.583Z,4.53
2023-10-23T13:11:33.544Z,6.10
2023-10-23T13:14:02.876Z,3.40
2023-10-23T13:16:30.932Z,7.10
2023-10-23T13:18:58.873Z,5.03
2023-10-23T13:21:31.501Z,6.47
2023-10-23T13:24:02.569Z,8.73
2023-10-23T13:26:30.521Z,5.47
2023-10-23T13:28:58.495Z,5.63
2023-10-23T13:31:27.932Z,5.10
2023-10-23T13:33:55.909Z,3.60
2023-10-23T13:36:23.945Z,5.53
2023-10-23T13:38:51.839Z,13.23
2023-10-23T13:41:19.816Z,4.27
2023-10-23T13:43:47.740Z,5.17
2023-10-23T13:46:16.421Z,8.20
2023-10-23T13:48:47.118Z,5.57
2023-10-23T13:51:15.961Z,4.13
2023-10-23T13:53:44.226Z,4.27
2023-10-23T13:56:12.186Z,6.20
2023-10-23T13:58:40.473Z,7.43
2023-10-23T14:01:08.436Z,8.97
2023-10-23T14:03:36.671Z,6.73
2023-10-23T14:06:06.412Z,8.50
2023-10-23T14:09:42.612Z,11.07
2023-10-23T14:11:57.121Z,6.90
2023-10-23T14:14:10.170Z,10.23
2023-10-23T14:16:38.209Z,9.93
2023-10-23T14:19:06.253Z,6.77
2023-10-23T14:21:35.660Z,8.20
2023-10-23T14:24:03.547Z,6.13
2023-10-23T14:26:31.469Z,8.47
2023-10-23T14:28:59.451Z,5.33
2023-10-23T14:31:27.441Z,4.23
2023-10-23T14:33:58.474Z,8.67
2023-10-23T14:36:27.004Z,11.33
2023-10-23T14:38:56.322Z,7.47
2023-10-23T14:41:24.576Z,9.77
2023-10-23T14:43:52.742Z,11.00
2023-10-23T14:46:20.836Z,8.97
2023-10-23T14:48:48.838Z,10.73
2023-10-23T14:51:16.725Z,15.57
2023-10-23T14:53:44.617Z,10.13
2023-10-23T14:56:14.459Z,6.77
2023-10-23T14:58:42.408Z,8.97
2023-10-23T15:01:10.676Z,10.03
2023-10-23T15:03:42.810Z,8.17
2023-10-23T15:06:11.315Z,13.20
2023-10-23T15:08:39.210Z,17.90
2023-10-23T15:11:07.162Z,9.57
2023-10-23T15:13:36.464Z,11.37
2023-10-23T15:16:04.758Z,15.20
2023-10-23T15:18:32.742Z,24.17
2023-10-23T15:21:03.910Z,14.00
2023-10-23T15:23:32.094Z,15.63
2023-10-23T15:26:00.267Z,20.47
2023-10-23T15:28:29.128Z,24.10
2023-10-23T15:31:00.686Z,23.40
2023-10-23T15:33:28.836Z,18.07
2023-10-23T15:35:58.492Z,26.27
2023-10-23T15:38:27.895Z,24.53
2023-10-23T15:41:04.369Z,20.57
2023-10-23T15:43:32.492Z,27.50
2023-10-23T15:46:01.902Z,20.63
2023-10-23T15:48:30.114Z,23.00
2023-10-23T15:50:58.788Z,19.03
2023-10-23T15:53:28.133Z,20.67
2023-10-23T15:55:56.732Z,22.60
2023-10-23T15:58:24.909Z,15.33
2023-10-23T16:00:53.782Z,26.30
2023-10-23T16:03:23.506Z,20.40
2023-10-23T16:05:51.951Z,29.67
2023-10-23T16:08:20.077Z,19.90
2023-10-23T16:10:48.654Z,21.13
2023-10-23T16:13:17.050Z,19.40
2023-10-23T16:15:45.413Z,19.57
2023-10-23T16:18:13.901Z,20.97
2023-10-23T16:20:44.193Z,12.50
2023-10-23T16:23:12.913Z,22.27
2023-10-23T16:25:43.076Z,18.63
2023-10-23T16:28:12.160Z,19.70
2023-10-23T16:30:40.734Z,14.07
2023-10-23T16:33:08.718Z,14.53
2023-10-23T16:35:36.957Z,17.87
2023-10-23T16:38:07.234Z,19.63
2023-10-23T16:40:35.730Z,13.27
2023-10-23T16:43:03.801Z,23.77
2023-10-23T16:45:32.892Z,17.73
2023-10-23T16:48:01.375Z,21.43
2023-10-23T16:50:29.994Z,14.80
2023-10-23T16:53:00.118Z,7.30
2023-10-23T16:55:29.727Z,4.87
2023-10-23T16:57:59.183Z,3.67
2023-10-23T17:00:28.552Z,5.13
2023-10-23T17:02:56.886Z,3.80
2023-10-23T17:05:24.809Z,2.10
2023-10-23T17:07:54.113Z,3.83
2023-10-23T17:10:22.257Z,2.03
2023-10-23T17:12:51.628Z,0.67
2023-10-23T17:15:19.735Z,0.87
2023-10-23T17:17:47.650Z,1.03
2023-10-23T17:20:17.054Z,3.10
2023-10-23T17:22:46.200Z,3.70
2023-10-23T17:25:14.287Z,1.37
2023-10-23T17:27:42.258Z,3.77
2023-10-23T17:30:13.026Z,1.53
2023-10-23T17:32:44.393Z,2.13
2023-10-23T17:35:13.137Z,2.07
2023-10-23T17:37:41.807Z,6.03
2023-10-23T17:40:12.266Z,5.00
2023-10-23T17:42:43.167Z,2.20
2023-10-23T17:45:13.325Z,1.90
2023-10-23T17:47:41.350Z,1.93
2023-10-23T17:50:09.873Z,1.53
2023-10-23T17:52:38.532Z,2.20
2023-10-23T17:55:07.407Z,2.43
2023-10-23T17:57:36.715Z,4.53
2023-10-23T18:00:04.816Z,3.33
2023-10-23T18:02:34.238Z,4.73
2023-10-23T18:05:02.194Z,3.90
2023-10-23T18:07:30.178Z,5.07
2023-10-23T18:09:58.100Z,7.77
2023-10-23T18:12:37.367Z,4.53
2023-10-23T18:15:06.696Z,4.20
2023-10-23T18:17:36.091Z,4.97
2023-10-23T18:20:04.246Z,6.50
2023-10-23T18:22:32.148Z,4.13
2023-10-23T18:25:00.116Z,5.90
2023-10-23T18:27:28.090Z,7.40
2023-10-23T18:29:56.066Z,9.50
2023-10-23T18:32:24.001Z,7.50
2023-10-23T18:34:54.625Z,4.93
2023-10-23T18:37:22.809Z,7.50
2023-10-23T18:39:51.475Z,7.13
2023-10-23T18:42:19.397Z,7.93
2023-10-23T18:44:47.361Z,8.23
2023-10-23T18:47:16.954Z,9.33
2023-10-23T18:49:48.350Z,9.60
2023-10-23T18:52:17.702Z,13.00
2023-10-23T18:54:45.649Z,8.23
2023-10-23T18:57:13.543Z,5.80
2023-10-23T18:59:41.665Z,6.77
2023-10-23T19:02:10.056Z,6.83
2023-10-23T19:04:38.448Z,5.40
2023-10-23T19:07:06.575Z,4.33
2023-10-23T19:09:35.943Z,5.43
2023-10-23T19:12:04.613Z,6.13
2023-10-23T19:14:32.617Z,2.80
2023-10-23T19:17:05.165Z,2.83
2023-10-23T19:19:33.574Z,3.30
2023-10-23T19:22:01.978Z,8.87
2023-10-23T19:24:29.909Z,3.87
2023-10-23T19:26:59.345Z,2.93
2023-10-23T19:29:28.474Z,2.80
2023-10-23T19:31:56.798Z,3.70
2023-10-23T19:34:25.069Z,3.90
2023-10-23T19:36:53.353Z,2.33
2023-10-23T19:39:21.646Z,1.93
2023-10-23T19:41:51.376Z,3.60
2023-10-23T19:44:22.438Z,2.43
2023-10-23T19:46:50.713Z,3.23
2023-10-23T19:49:19.234Z,4.33
2023-10-23T19:51:48.714Z,3.77
2023-10-23T19:54:38.235Z,3.50
2023-10-23T19:57:06.423Z,3.23
2023-10-23T19:59:38.011Z,4.67
2023-10-23T20:02:06.452Z,6.77
2023-10-23T20:04:34.783Z,3.77
2023-10-23T20:07:02.992Z,2.77
2023-10-23T20:09:30.924Z,4.63
2023-10-23T20:11:58.857Z,2.73
2023-10-23T20:14:26.906Z,3.00
2023-10-23T20:16:56.374Z,4.80
2023-10-23T20:19:24.476Z,2.57
2023-10-23T20:21:53.049Z,4.03
2023-10-23T20:24:20.931Z,3.47
2023-10-23T20:26:48.824Z,4.13
2023-10-23T20:29:16.739Z,3.97
2023-10-23T20:31:44.691Z,3.57
2023-10-23T20:34:14.325Z,3.23
2023-10-23T20:36:42.233Z,1.90
2023-10-23T20:39:11.186Z,4.87
2023-10-23T20:41:39.090Z,2.97
2023-10-23T20:44:07.054Z,3.93
2023-10-23T20:46:36.043Z,3.20
2023-10-23T20:49:04.711Z,4.53
2023-10-23T20:51:34.093Z,4.67
2023-10-23T20:54:02.005Z,9.03
2023-10-23T20:56:29.870Z,6.43
2023-10-23T20:58:57.794Z,8.27
2023-10-23T21:01:26.107Z,8.30
2023-10-23T21:03:54.188Z,5.57
2023-10-23T21:06:22.855Z,4.33
2023-10-23T21:08:52.161Z,6.20
2023-10-23T21:11:20.087Z,2.30
2023-10-23T21:13:48.313Z,2.83
2023-10-23T21:16:16.661Z,3.63
2023-10-23T21:18:44.589Z,6.50
2023-10-23T21:21:12.765Z,6.97
2023-10-23T21:23:40.649Z,3.57
2023-10-23T21:26:09.948Z,3.03
2023-10-23T21:28:39.326Z,5.53
2023-10-23T21:31:07.998Z,9.83
2023-10-23T21:33:36.003Z,8.87
2023-10-23T21:36:04.263Z,9.10
2023-10-23T21:38:32.590Z,9.43
2023-10-23T21:41:00.538Z,6.03
2023-10-23T21:43:29.875Z,3.67
2023-10-23T21:46:15.717Z,3.73
2023-10-23T21:48:45.021Z,4.90
2023-10-23T21:51:12.980Z,4.07
2023-10-23T21:53:41.192Z,5.03
2023-10-23T21:56:09.619Z,3.70
2023-10-23T21:59:08.638Z,5.50
2023-10-23T22:01:29.343Z,4.60
2023-10-23T22:03:57.756Z,4.90
2023-10-23T22:06:25.884Z,4.40
2023-10-23T22:08:54.061Z,2.90
2023-10-23T22:11:22.272Z,4.30
2023-10-23T22:13:52.038Z,2.80
2023-10-23T22:16:20.009Z,3.23
2023-10-23T22:18:50.134Z,6.20
2023-10-23T22:21:19.298Z,3.77
2023-10-23T22:23:47.208Z,3.73
2023-10-23T22:26:15.137Z,4.43
2023-10-23T22:28:43.132Z,2.87
2023-10-23T22:31:12.636Z,5.80
2023-10-23T22:33:40.653Z,3.33
2023-10-23T22:36:08.764Z,5.80
2023-10-23T22:38:36.693Z,4.47
2023-10-23T22:41:05.317Z,4.80
2023-10-23T22:43:33.429Z,2.60
2023-10-23T22:46:03.783Z,4.83
2023-10-23T22:48:33.622Z,6.67
2023-10-23T22:51:01.704Z,5.60
2023-10-23T22:53:30.528Z,6.80
2023-10-23T22:56:00.255Z,2.93
2023-10-23T22:58:30.356Z,9.47
2023-10-23T23:00:58.673Z,3.13
2023-10-23T23:03:27.040Z,4.00
2023-10-23T23:05:56.951Z,3.10
2023-10-23T23:08:25.797Z,1.70
2023-10-23T23:10:54.044Z,2.87
2023-10-23T23:13:22.249Z,2.90
2023-10-23T23:15:52.203Z,1.87
2023-10-23T23:18:21.390Z,4.53
2023-10-23T23:20:49.804Z,3.20
2023-10-23T23:23:19.151Z,4.57
2023-10-23T23:25:47.715Z,5.03
2023-10-23T23:28:17.170Z,3.93
2023-10-23T23:30:45.127Z,5.13
2023-10-23T23:33:13.054Z,5.07
2023-10-23T23:35:40.984Z,4.40
2023-10-23T23:38:08.896Z,4.67
2023-10-23T23:40:38.217Z,3.73
2023-10-23T23:43:06.176Z,5.17
2023-10-23T23:45:34.157Z,3.50
2023-10-23T23:48:02.131Z,4.67
2023-10-23T23:50:30.020Z,3.70
2023-10-23T23:52:57.929Z,2.13
2023-10-23T23:55:25.929Z,2.53
2023-10-23T23:57:55.507Z,2.23
